LEBL/BCN METAR and TAF weather

Enter ICAO airport designator
Station Type Date Time Source
LEBL METAR 2022/10/01 08:30 UTC NOAA

LEBL 010830Z 33010KT 290V020 CAVOK 17/07 Q1023 NOSIG


Station Type Date Time Source
LEBL Decoded METAR 2022/10/01 08:30 UTC NOAA

Barcelona / Aeropuerto, Spain (LEBL) 41-17N 002-04E 6M
Oct 01, 2022 - 04:30 AM EDT / 2022.10.01 0830 UTC
Wind: from the NNW (330 degrees) at 12 MPH (10 KT) (direction variable):0
Visibility: greater than 7 mile(s):0
Temperature: 62 F (17 C)
Dew Point: 44 F (7 C)
Relative Humidity: 51%
Pressure (altimeter): 30.21 in. Hg (1023 hPa)
ob: LEBL 010830Z 33010KT 290V020 CAVOK 17/07 Q1023 NOSIG
cycle: 8

Station Type Date Time Source
LEBL TAF 2022/10/01 06:27 UTC NOAA

TAF LEBL 010500Z 0106/0206 34010KT 9999 FEW030 TX24/0112Z TN13/0106Z
BECMG 0110/0112 22012KT
BECMG 0119/0122 34006KT

Example: see airport list